sensor_id;sensor_type;location;lat;lon;timestamp;P1;durP1;ratioP1;P2;durP2;ratioP2
48951;SDS011;34758;42.148;24.744;2022-11-11T00:00:19;48.90;;;32.20;;
48951;SDS011;34758;42.148;24.744;2022-11-11T00:02:47;52.70;;;34.08;;
48951;SDS011;34758;42.148;24.744;2022-11-11T00:05:14;51.22;;;34.33;;
48951;SDS011;34758;42.148;24.744;2022-11-11T00:07:43;46.45;;;33.38;;
48951;SDS011;34758;42.148;24.744;2022-11-11T00:10:12;47.22;;;32.33;;
48951;SDS011;34758;42.148;24.744;2022-11-11T00:12:39;46.00;;;31.17;;
48951;SDS011;34758;42.148;24.744;2022-11-11T00:15:06;50.58;;;31.98;;
48951;SDS011;34758;42.148;24.744;2022-11-11T00:17:34;47.25;;;32.42;;
48951;SDS011;34758;42.148;24.744;2022-11-11T00:20:18;48.35;;;32.00;;
48951;SDS011;34758;42.148;24.744;2022-11-11T00:23:07;52.78;;;33.10;;
48951;SDS011;34758;42.148;24.744;2022-11-11T00:26:00;50.15;;;32.78;;
48951;SDS011;34758;42.148;24.744;2022-11-11T00:28:29;48.88;;;34.47;;
48951;SDS011;34758;42.148;24.744;2022-11-11T00:31:00;47.08;;;32.03;;
48951;SDS011;34758;42.148;24.744;2022-11-11T00:33:29;50.55;;;33.78;;
48951;SDS011;34758;42.148;24.744;2022-11-11T00:35:56;49.00;;;33.17;;
48951;SDS011;34758;42.148;24.744;2022-11-11T00:38:24;47.38;;;32.47;;
48951;SDS011;34758;42.148;24.744;2022-11-11T00:41:08;51.63;;;33.20;;
48951;SDS011;34758;42.148;24.744;2022-11-11T00:43:35;48.78;;;32.05;;
48951;SDS011;34758;42.148;24.744;2022-11-11T00:46:02;49.53;;;33.55;;
48951;SDS011;34758;42.148;24.744;2022-11-11T00:48:46;58.05;;;32.63;;
48951;SDS011;34758;42.148;24.744;2022-11-11T00:51:31;48.80;;;32.75;;
48951;SDS011;34758;42.148;24.744;2022-11-11T00:54:01;47.65;;;31.88;;
48951;SDS011;34758;42.148;24.744;2022-11-11T00:56:27;50.20;;;32.13;;
48951;SDS011;34758;42.148;24.744;2022-11-11T00:58:55;44.25;;;33.13;;
48951;SDS011;34758;42.148;24.744;2022-11-11T01:01:22;50.63;;;31.58;;
48951;SDS011;34758;42.148;24.744;2022-11-11T01:03:49;46.55;;;29.77;;
48951;SDS011;34758;42.148;24.744;2022-11-11T01:06:19;47.13;;;30.80;;
48951;SDS011;34758;42.148;24.744;2022-11-11T01:08:46;45.97;;;30.83;;
48951;SDS011;34758;42.148;24.744;2022-11-11T01:11:16;47.70;;;32.28;;
48951;SDS011;34758;42.148;24.744;2022-11-11T01:13:44;47.13;;;31.73;;
48951;SDS011;34758;42.148;24.744;2022-11-11T01:16:13;47.33;;;30.15;;
48951;SDS011;34758;42.148;24.744;2022-11-11T01:18:40;46.35;;;31.23;;
48951;SDS011;34758;42.148;24.744;2022-11-11T01:21:09;42.33;;;29.88;;
48951;SDS011;34758;42.148;24.744;2022-11-11T01:23:38;44.33;;;30.60;;
48951;SDS011;34758;42.148;24.744;2022-11-11T01:26:06;44.40;;;29.45;;
48951;SDS011;34758;42.148;24.744;2022-11-11T01:28:37;42.75;;;29.33;;
48951;SDS011;34758;42.148;24.744;2022-11-11T01:31:05;47.00;;;31.42;;
48951;SDS011;34758;42.148;24.744;2022-11-11T01:33:33;43.28;;;29.55;;
48951;SDS011;34758;42.148;24.744;2022-11-11T01:36:04;40.55;;;29.48;;
48951;SDS011;34758;42.148;24.744;2022-11-11T01:38:33;39.80;;;28.95;;
48951;SDS011;34758;42.148;24.744;2022-11-11T01:41:00;43.35;;;27.85;;
48951;SDS011;34758;42.148;24.744;2022-11-11T01:43:51;41.53;;;27.40;;
48951;SDS011;34758;42.148;24.744;2022-11-11T01:46:23;39.10;;;27.27;;
48951;SDS011;34758;42.148;24.744;2022-11-11T01:48:55;39.80;;;26.35;;
48951;SDS011;34758;42.148;24.744;2022-11-11T01:51:44;39.47;;;26.45;;
48951;SDS011;34758;42.148;24.744;2022-11-11T01:54:20;41.08;;;27.77;;
48951;SDS011;34758;42.148;24.744;2022-11-11T01:56:49;43.83;;;27.75;;
48951;SDS011;34758;42.148;24.744;2022-11-11T01:59:21;41.27;;;27.33;;
48951;SDS011;34758;42.148;24.744;2022-11-11T02:01:49;40.88;;;26.25;;
48951;SDS011;34758;42.148;24.744;2022-11-11T02:04:16;39.17;;;27.35;;
48951;SDS011;34758;42.148;24.744;2022-11-11T02:07:01;40.08;;;26.40;;
48951;SDS011;34758;42.148;24.744;2022-11-11T02:09:31;40.15;;;26.95;;
48951;SDS011;34758;42.148;24.744;2022-11-11T02:11:58;40.45;;;27.67;;
48951;SDS011;34758;42.148;24.744;2022-11-11T02:14:48;39.92;;;27.70;;
48951;SDS011;34758;42.148;24.744;2022-11-11T02:17:19;36.50;;;25.75;;
48951;SDS011;34758;42.148;24.744;2022-11-11T02:19:47;40.33;;;27.95;;
48951;SDS011;34758;42.148;24.744;2022-11-11T02:22:17;38.83;;;26.48;;
48951;SDS011;34758;42.148;24.744;2022-11-11T02:24:49;39.58;;;27.02;;
48951;SDS011;34758;42.148;24.744;2022-11-11T02:27:18;41.17;;;26.63;;
48951;SDS011;34758;42.148;24.744;2022-11-11T02:29:46;42.22;;;27.83;;
48951;SDS011;34758;42.148;24.744;2022-11-11T02:32:15;45.30;;;28.98;;
48951;SDS011;34758;42.148;24.744;2022-11-11T02:34:44;36.85;;;26.88;;
48951;SDS011;34758;42.148;24.744;2022-11-11T02:37:10;40.03;;;26.25;;
48951;SDS011;34758;42.148;24.744;2022-11-11T02:39:39;40.72;;;26.77;;
48951;SDS011;34758;42.148;24.744;2022-11-11T02:42:10;39.72;;;27.17;;
48951;SDS011;34758;42.148;24.744;2022-11-11T02:44:39;39.75;;;27.10;;
48951;SDS011;34758;42.148;24.744;2022-11-11T02:47:06;40.05;;;27.17;;
48951;SDS011;34758;42.148;24.744;2022-11-11T02:49:33;36.25;;;26.67;;
48951;SDS011;34758;42.148;24.744;2022-11-11T02:52:00;38.88;;;27.83;;
48951;SDS011;34758;42.148;24.744;2022-11-11T02:54:27;40.00;;;27.70;;
48951;SDS011;34758;42.148;24.744;2022-11-11T02:56:55;40.88;;;28.77;;
48951;SDS011;34758;42.148;24.744;2022-11-11T02:59:36;44.97;;;29.63;;
48951;SDS011;34758;42.148;24.744;2022-11-11T03:02:03;42.80;;;29.52;;
48951;SDS011;34758;42.148;24.744;2022-11-11T03:04:30;45.30;;;30.30;;
48951;SDS011;34758;42.148;24.744;2022-11-11T03:06:57;48.72;;;30.58;;
48951;SDS011;34758;42.148;24.744;2022-11-11T03:09:25;48.88;;;31.25;;
48951;SDS011;34758;42.148;24.744;2022-11-11T03:11:52;44.47;;;29.58;;
48951;SDS011;34758;42.148;24.744;2022-11-11T03:14:19;43.08;;;30.17;;
48951;SDS011;34758;42.148;24.744;2022-11-11T03:16:48;43.67;;;30.65;;
48951;SDS011;34758;42.148;24.744;2022-11-11T03:19:33;47.50;;;30.23;;
48951;SDS011;34758;42.148;24.744;2022-11-11T03:22:00;44.88;;;30.10;;
48951;SDS011;34758;42.148;24.744;2022-11-11T03:24:27;46.25;;;29.92;;
48951;SDS011;34758;42.148;24.744;2022-11-11T03:27:15;47.08;;;29.33;;
48951;SDS011;34758;42.148;24.744;2022-11-11T03:29:41;46.28;;;29.35;;
48951;SDS011;34758;42.148;24.744;2022-11-11T03:32:10;46.28;;;29.50;;
48951;SDS011;34758;42.148;24.744;2022-11-11T03:34:37;45.67;;;30.92;;
48951;SDS011;34758;42.148;24.744;2022-11-11T03:37:05;52.25;;;31.27;;
48951;SDS011;34758;42.148;24.744;2022-11-11T03:39:49;58.55;;;33.00;;
48951;SDS011;34758;42.148;24.744;2022-11-11T03:42:18;47.75;;;31.25;;
48951;SDS011;34758;42.148;24.744;2022-11-11T03:44:45;49.03;;;30.70;;
48951;SDS011;34758;42.148;24.744;2022-11-11T03:47:13;48.95;;;31.30;;
48951;SDS011;34758;42.148;24.744;2022-11-11T03:49:41;47.97;;;30.50;;
48951;SDS011;34758;42.148;24.744;2022-11-11T03:52:11;51.00;;;30.70;;
48951;SDS011;34758;42.148;24.744;2022-11-11T03:54:38;51.25;;;29.48;;
48951;SDS011;34758;42.148;24.744;2022-11-11T03:57:05;41.13;;;27.33;;
48951;SDS011;34758;42.148;24.744;2022-11-11T03:59:50;39.63;;;27.73;;
48951;SDS011;34758;42.148;24.744;2022-11-11T04:02:19;45.38;;;28.85;;
48951;SDS011;34758;42.148;24.744;2022-11-11T04:05:04;42.50;;;27.88;;
48951;SDS011;34758;42.148;24.744;2022-11-11T04:07:49;41.92;;;27.00;;
48951;SDS011;34758;42.148;24.744;2022-11-11T04:10:34;38.35;;;26.98;;
48951;SDS011;34758;42.148;24.744;2022-11-11T04:13:02;40.25;;;27.42;;
48951;SDS011;34758;42.148;24.744;2022-11-11T04:15:46;40.95;;;27.52;;
48951;SDS011;34758;42.148;24.744;2022-11-11T04:18:32;41.53;;;28.63;;
48951;SDS011;34758;42.148;24.744;2022-11-11T04:21:18;43.05;;;29.42;;
48951;SDS011;34758;42.148;24.744;2022-11-11T04:24:03;45.33;;;27.77;;
48951;SDS011;34758;42.148;24.744;2022-11-11T04:26:52;43.22;;;29.33;;
48951;SDS011;34758;42.148;24.744;2022-11-11T04:29:18;38.53;;;25.80;;
48951;SDS011;34758;42.148;24.744;2022-11-11T04:31:55;45.00;;;29.05;;
48951;SDS011;34758;42.148;24.744;2022-11-11T04:34:41;37.65;;;27.00;;
48951;SDS011;34758;42.148;24.744;2022-11-11T04:37:10;37.95;;;26.48;;
48951;SDS011;34758;42.148;24.744;2022-11-11T04:39:38;36.38;;;25.77;;
48951;SDS011;34758;42.148;24.744;2022-11-11T04:42:22;42.03;;;28.10;;
48951;SDS011;34758;42.148;24.744;2022-11-11T04:44:50;46.97;;;29.17;;
48951;SDS011;34758;42.148;24.744;2022-11-11T04:47:34;47.67;;;29.50;;
48951;SDS011;34758;42.148;24.744;2022-11-11T04:50:03;47.25;;;28.70;;
48951;SDS011;34758;42.148;24.744;2022-11-11T04:52:31;40.47;;;27.80;;
48951;SDS011;34758;42.148;24.744;2022-11-11T04:54:58;47.40;;;28.55;;
48951;SDS011;34758;42.148;24.744;2022-11-11T04:57:44;40.95;;;28.50;;
48951;SDS011;34758;42.148;24.744;2022-11-11T05:00:13;41.97;;;28.23;;
48951;SDS011;34758;42.148;24.744;2022-11-11T05:02:41;46.05;;;28.75;;
48951;SDS011;34758;42.148;24.744;2022-11-11T05:05:28;42.88;;;27.30;;
48951;SDS011;34758;42.148;24.744;2022-11-11T05:08:15;37.83;;;26.13;;
48951;SDS011;34758;42.148;24.744;2022-11-11T05:10:59;40.97;;;26.65;;
48951;SDS011;34758;42.148;24.744;2022-11-11T05:13:26;38.80;;;25.70;;
48951;SDS011;34758;42.148;24.744;2022-11-11T05:16:12;36.10;;;24.70;;
48951;SDS011;34758;42.148;24.744;2022-11-11T05:18:57;37.55;;;26.52;;
48951;SDS011;34758;42.148;24.744;2022-11-11T05:21:44;43.92;;;26.45;;
48951;SDS011;34758;42.148;24.744;2022-11-11T05:24:11;39.95;;;26.00;;
48951;SDS011;34758;42.148;24.744;2022-11-11T05:26:56;37.88;;;25.88;;
48951;SDS011;34758;42.148;24.744;2022-11-11T05:29:23;43.55;;;27.25;;
48951;SDS011;34758;42.148;24.744;2022-11-11T05:31:50;35.25;;;25.80;;
48951;SDS011;34758;42.148;24.744;2022-11-11T05:34:16;39.88;;;26.25;;
48951;SDS011;34758;42.148;24.744;2022-11-11T05:36:45;39.85;;;24.35;;
48951;SDS011;34758;42.148;24.744;2022-11-11T05:39:12;40.40;;;26.65;;
48951;SDS011;34758;42.148;24.744;2022-11-11T05:41:39;38.22;;;25.33;;
48951;SDS011;34758;42.148;24.744;2022-11-11T05:44:06;38.72;;;25.73;;
48951;SDS011;34758;42.148;24.744;2022-11-11T05:46:33;36.63;;;25.52;;
48951;SDS011;34758;42.148;24.744;2022-11-11T05:49:00;38.95;;;23.27;;
48951;SDS011;34758;42.148;24.744;2022-11-11T05:54:11;49.47;;;26.40;;
48951;SDS011;34758;42.148;24.744;2022-11-11T05:56:38;51.75;;;28.58;;
48951;SDS011;34758;42.148;24.744;2022-11-11T05:59:06;44.35;;;27.83;;
48951;SDS011;34758;42.148;24.744;2022-11-11T06:01:33;46.65;;;26.67;;
48951;SDS011;34758;42.148;24.744;2022-11-11T06:04:00;37.47;;;24.65;;
48951;SDS011;34758;42.148;24.744;2022-11-11T06:06:28;34.35;;;24.75;;
48951;SDS011;34758;42.148;24.744;2022-11-11T06:08:55;36.92;;;23.98;;
48951;SDS011;34758;42.148;24.744;2022-11-11T06:11:24;34.90;;;23.02;;
48951;SDS011;34758;42.148;24.744;2022-11-11T06:13:52;34.08;;;23.58;;
48951;SDS011;34758;42.148;24.744;2022-11-11T06:16:19;34.78;;;23.98;;
48951;SDS011;34758;42.148;24.744;2022-11-11T06:18:47;28.23;;;20.75;;
48951;SDS011;34758;42.148;24.744;2022-11-11T06:21:15;33.50;;;22.38;;
48951;SDS011;34758;42.148;24.744;2022-11-11T06:23:42;41.10;;;22.55;;
48951;SDS011;34758;42.148;24.744;2022-11-11T06:26:10;46.42;;;29.02;;
48951;SDS011;34758;42.148;24.744;2022-11-11T06:28:43;74.78;;;52.33;;
48951;SDS011;34758;42.148;24.744;2022-11-11T06:31:11;32.38;;;23.08;;
48951;SDS011;34758;42.148;24.744;2022-11-11T06:33:39;31.98;;;21.25;;
48951;SDS011;34758;42.148;24.744;2022-11-11T06:36:07;37.33;;;21.58;;
48951;SDS011;34758;42.148;24.744;2022-11-11T06:38:35;33.92;;;21.35;;
48951;SDS011;34758;42.148;24.744;2022-11-11T06:41:03;39.65;;;21.20;;
48951;SDS011;34758;42.148;24.744;2022-11-11T06:43:31;33.92;;;19.17;;
48951;SDS011;34758;42.148;24.744;2022-11-11T06:45:59;32.05;;;19.50;;
48951;SDS011;34758;42.148;24.744;2022-11-11T06:48:27;32.28;;;20.52;;
48951;SDS011;34758;42.148;24.744;2022-11-11T06:50:59;33.42;;;20.33;;
48951;SDS011;34758;42.148;24.744;2022-11-11T06:53:27;31.92;;;20.33;;
48951;SDS011;34758;42.148;24.744;2022-11-11T06:55:54;30.33;;;20.63;;
48951;SDS011;34758;42.148;24.744;2022-11-11T06:58:21;29.83;;;20.00;;
48951;SDS011;34758;42.148;24.744;2022-11-11T07:00:50;34.13;;;19.90;;
48951;SDS011;34758;42.148;24.744;2022-11-11T07:03:19;29.70;;;18.33;;
48951;SDS011;34758;42.148;24.744;2022-11-11T07:05:47;32.17;;;21.13;;
48951;SDS011;34758;42.148;24.744;2022-11-11T07:08:16;33.65;;;20.08;;
48951;SDS011;34758;42.148;24.744;2022-11-11T07:10:44;26.20;;;18.98;;
48951;SDS011;34758;42.148;24.744;2022-11-11T07:13:12;34.45;;;19.30;;
48951;SDS011;34758;42.148;24.744;2022-11-11T07:15:39;31.95;;;20.02;;
48951;SDS011;34758;42.148;24.744;2022-11-11T07:18:07;27.75;;;20.38;;
48951;SDS011;34758;42.148;24.744;2022-11-11T07:20:39;31.40;;;20.10;;
48951;SDS011;34758;42.148;24.744;2022-11-11T07:23:07;34.00;;;21.13;;
48951;SDS011;34758;42.148;24.744;2022-11-11T07:25:34;30.77;;;19.80;;
48951;SDS011;34758;42.148;24.744;2022-11-11T07:28:01;34.00;;;22.33;;
48951;SDS011;34758;42.148;24.744;2022-11-11T07:30:28;30.40;;;18.40;;
48951;SDS011;34758;42.148;24.744;2022-11-11T07:32:55;25.23;;;17.15;;
48951;SDS011;34758;42.148;24.744;2022-11-11T07:35:22;22.90;;;16.52;;
48951;SDS011;34758;42.148;24.744;2022-11-11T07:37:51;23.77;;;17.35;;
48951;SDS011;34758;42.148;24.744;2022-11-11T07:40:18;22.02;;;14.70;;
48951;SDS011;34758;42.148;24.744;2022-11-11T07:42:46;21.48;;;14.70;;
48951;SDS011;34758;42.148;24.744;2022-11-11T07:45:14;22.77;;;15.02;;
48951;SDS011;34758;42.148;24.744;2022-11-11T07:47:42;23.45;;;14.40;;
48951;SDS011;34758;42.148;24.744;2022-11-11T07:50:11;24.58;;;15.07;;
48951;SDS011;34758;42.148;24.744;2022-11-11T07:52:46;23.45;;;14.32;;
48951;SDS011;34758;42.148;24.744;2022-11-11T07:55:17;24.58;;;15.68;;
48951;SDS011;34758;42.148;24.744;2022-11-11T07:57:44;20.17;;;15.05;;
48951;SDS011;34758;42.148;24.744;2022-11-11T08:00:11;23.17;;;16.67;;
48951;SDS011;34758;42.148;24.744;2022-11-11T08:02:39;21.98;;;16.08;;
48951;SDS011;34758;42.148;24.744;2022-11-11T08:05:07;24.90;;;14.98;;
48951;SDS011;34758;42.148;24.744;2022-11-11T08:07:35;21.27;;;15.82;;
48951;SDS011;34758;42.148;24.744;2022-11-11T08:10:02;23.25;;;16.70;;
48951;SDS011;34758;42.148;24.744;2022-11-11T08:12:31;22.05;;;15.27;;
48951;SDS011;34758;42.148;24.744;2022-11-11T08:15:16;18.95;;;14.45;;
48951;SDS011;34758;42.148;24.744;2022-11-11T08:17:44;22.17;;;15.27;;
48951;SDS011;34758;42.148;24.744;2022-11-11T08:20:11;20.90;;;15.55;;
48951;SDS011;34758;42.148;24.744;2022-11-11T08:22:39;21.90;;;15.63;;
48951;SDS011;34758;42.148;24.744;2022-11-11T08:25:09;23.90;;;16.40;;
48951;SDS011;34758;42.148;24.744;2022-11-11T08:27:39;19.65;;;15.13;;
48951;SDS011;34758;42.148;24.744;2022-11-11T08:30:07;21.33;;;15.48;;
48951;SDS011;34758;42.148;24.744;2022-11-11T08:32:35;23.48;;;15.05;;
48951;SDS011;34758;42.148;24.744;2022-11-11T08:35:02;21.25;;;13.43;;
48951;SDS011;34758;42.148;24.744;2022-11-11T08:37:30;21.17;;;14.15;;
48951;SDS011;34758;42.148;24.744;2022-11-11T08:39:57;17.95;;;13.02;;
48951;SDS011;34758;42.148;24.744;2022-11-11T08:42:24;17.63;;;13.68;;
48951;SDS011;34758;42.148;24.744;2022-11-11T08:44:53;21.52;;;15.27;;
48951;SDS011;34758;42.148;24.744;2022-11-11T08:47:20;21.88;;;15.43;;
48951;SDS011;34758;42.148;24.744;2022-11-11T08:49:49;22.75;;;15.93;;
48951;SDS011;34758;42.148;24.744;2022-11-11T08:52:16;23.60;;;15.52;;
48951;SDS011;34758;42.148;24.744;2022-11-11T08:54:43;26.10;;;16.48;;
48951;SDS011;34758;42.148;24.744;2022-11-11T08:57:11;24.60;;;16.00;;
48951;SDS011;34758;42.148;24.744;2022-11-11T08:59:38;22.92;;;15.85;;
48951;SDS011;34758;42.148;24.744;2022-11-11T09:02:07;23.95;;;16.05;;
48951;SDS011;34758;42.148;24.744;2022-11-11T09:04:37;18.92;;;14.38;;
48951;SDS011;34758;42.148;24.744;2022-11-11T09:07:04;20.98;;;15.73;;
48951;SDS011;34758;42.148;24.744;2022-11-11T09:09:32;24.35;;;15.30;;
48951;SDS011;34758;42.148;24.744;2022-11-11T09:11:59;19.98;;;15.55;;
48951;SDS011;34758;42.148;24.744;2022-11-11T09:14:26;21.83;;;15.90;;
48951;SDS011;34758;42.148;24.744;2022-11-11T09:16:53;18.15;;;13.50;;
48951;SDS011;34758;42.148;24.744;2022-11-11T09:19:22;18.75;;;13.77;;
48951;SDS011;34758;42.148;24.744;2022-11-11T09:21:49;19.85;;;14.00;;
48951;SDS011;34758;42.148;24.744;2022-11-11T09:24:16;17.95;;;13.70;;
48951;SDS011;34758;42.148;24.744;2022-11-11T09:26:45;18.92;;;14.13;;
48951;SDS011;34758;42.148;24.744;2022-11-11T09:29:13;17.90;;;13.65;;
48951;SDS011;34758;42.148;24.744;2022-11-11T09:31:44;21.33;;;13.05;;
48951;SDS011;34758;42.148;24.744;2022-11-11T09:34:11;18.23;;;12.57;;
48951;SDS011;34758;42.148;24.744;2022-11-11T09:36:40;17.02;;;13.77;;
48951;SDS011;34758;42.148;24.744;2022-11-11T09:39:07;21.13;;;12.30;;
48951;SDS011;34758;42.148;24.744;2022-11-11T09:41:36;21.33;;;13.50;;
48951;SDS011;34758;42.148;24.744;2022-11-11T09:44:14;17.85;;;12.25;;
48951;SDS011;34758;42.148;24.744;2022-11-11T09:46:51;14.40;;;11.65;;
48951;SDS011;34758;42.148;24.744;2022-11-11T09:49:37;16.95;;;12.65;;
48951;SDS011;34758;42.148;24.744;2022-11-11T09:52:24;18.65;;;13.77;;
48951;SDS011;34758;42.148;24.744;2022-11-11T09:54:56;16.50;;;11.60;;
48951;SDS011;34758;42.148;24.744;2022-11-11T09:57:28;19.00;;;12.40;;
48951;SDS011;34758;42.148;24.744;2022-11-11T10:00:02;16.27;;;12.98;;
48951;SDS011;34758;42.148;24.744;2022-11-11T10:02:33;21.77;;;12.73;;
48951;SDS011;34758;42.148;24.744;2022-11-11T10:05:04;19.15;;;11.98;;
48951;SDS011;34758;42.148;24.744;2022-11-11T10:07:38;16.65;;;11.88;;
48951;SDS011;34758;42.148;24.744;2022-11-11T10:10:16;18.30;;;11.80;;
48951;SDS011;34758;42.148;24.744;2022-11-11T10:12:48;20.70;;;13.50;;
48951;SDS011;34758;42.148;24.744;2022-11-11T10:15:18;20.17;;;12.85;;
48951;SDS011;34758;42.148;24.744;2022-11-11T10:17:52;16.95;;;11.85;;
48951;SDS011;34758;42.148;24.744;2022-11-11T10:20:27;18.38;;;11.75;;
48951;SDS011;34758;42.148;24.744;2022-11-11T10:22:59;14.32;;;11.57;;
48951;SDS011;34758;42.148;24.744;2022-11-11T10:25:29;17.65;;;12.13;;
48951;SDS011;34758;42.148;24.744;2022-11-11T10:27:57;16.63;;;11.13;;
48951;SDS011;34758;42.148;24.744;2022-11-11T10:30:25;14.25;;;10.80;;
48951;SDS011;34758;42.148;24.744;2022-11-11T10:32:55;16.33;;;11.05;;
48951;SDS011;34758;42.148;24.744;2022-11-11T10:35:25;20.25;;;11.57;;
48951;SDS011;34758;42.148;24.744;2022-11-11T10:38:00;18.45;;;10.45;;
48951;SDS011;34758;42.148;24.744;2022-11-11T10:40:33;14.15;;;11.02;;
48951;SDS011;34758;42.148;24.744;2022-11-11T10:43:03;15.32;;;10.60;;
48951;SDS011;34758;42.148;24.744;2022-11-11T10:45:32;15.15;;;10.75;;
48951;SDS011;34758;42.148;24.744;2022-11-11T10:48:06;12.23;;;9.80;;
48951;SDS011;34758;42.148;24.744;2022-11-11T10:50:35;14.90;;;10.40;;
48951;SDS011;34758;42.148;24.744;2022-11-11T10:53:10;14.18;;;9.43;;
48951;SDS011;34758;42.148;24.744;2022-11-11T10:55:43;15.10;;;9.63;;
48951;SDS011;34758;42.148;24.744;2022-11-11T10:58:15;15.05;;;10.07;;
48951;SDS011;34758;42.148;24.744;2022-11-11T11:00:45;15.05;;;9.45;;
48951;SDS011;34758;42.148;24.744;2022-11-11T11:03:14;10.73;;;8.75;;
48951;SDS011;34758;42.148;24.744;2022-11-11T11:05:44;14.27;;;9.68;;
48951;SDS011;34758;42.148;24.744;2022-11-11T11:08:15;13.02;;;9.57;;
48951;SDS011;34758;42.148;24.744;2022-11-11T11:10:44;15.88;;;10.57;;
48951;SDS011;34758;42.148;24.744;2022-11-11T11:13:16;14.82;;;9.95;;
48951;SDS011;34758;42.148;24.744;2022-11-11T11:15:48;14.75;;;9.32;;
48951;SDS011;34758;42.148;24.744;2022-11-11T11:18:23;13.73;;;9.88;;
48951;SDS011;34758;42.148;24.744;2022-11-11T11:20:55;11.15;;;9.48;;
48951;SDS011;34758;42.148;24.744;2022-11-11T11:23:38;12.65;;;8.77;;
48951;SDS011;34758;42.148;24.744;2022-11-11T11:26:06;15.50;;;9.52;;
48951;SDS011;34758;42.148;24.744;2022-11-11T11:28:35;14.27;;;9.30;;
48951;SDS011;34758;42.148;24.744;2022-11-11T11:31:19;11.23;;;8.52;;
48951;SDS011;34758;42.148;24.744;2022-11-11T11:33:59;13.82;;;9.77;;
48951;SDS011;34758;42.148;24.744;2022-11-11T11:36:27;13.30;;;9.63;;
48951;SDS011;34758;42.148;24.744;2022-11-11T11:38:55;14.80;;;11.20;;
48951;SDS011;34758;42.148;24.744;2022-11-11T11:41:35;15.02;;;11.02;;
48951;SDS011;34758;42.148;24.744;2022-11-11T11:44:03;16.48;;;11.25;;
48951;SDS011;34758;42.148;24.744;2022-11-11T11:46:51;17.40;;;10.40;;
48951;SDS011;34758;42.148;24.744;2022-11-11T11:49:24;17.30;;;9.85;;
48951;SDS011;34758;42.148;24.744;2022-11-11T11:51:59;15.73;;;11.27;;
48951;SDS011;34758;42.148;24.744;2022-11-11T11:57:21;16.75;;;10.85;;
48951;SDS011;34758;42.148;24.744;2022-11-11T11:59:56;15.40;;;10.30;;
48951;SDS011;34758;42.148;24.744;2022-11-11T12:02:34;13.60;;;10.32;;
48951;SDS011;34758;42.148;24.744;2022-11-11T12:05:10;17.58;;;11.00;;
48951;SDS011;34758;42.148;24.744;2022-11-11T12:07:50;16.08;;;11.30;;
48951;SDS011;34758;42.148;24.744;2022-11-11T12:10:29;14.23;;;9.83;;
48951;SDS011;34758;42.148;24.744;2022-11-11T12:13:05;19.48;;;10.70;;
48951;SDS011;34758;42.148;24.744;2022-11-11T12:15:35;15.63;;;10.85;;
48951;SDS011;34758;42.148;24.744;2022-11-11T12:18:18;15.50;;;10.50;;
48951;SDS011;34758;42.148;24.744;2022-11-11T12:21:11;18.60;;;11.23;;
48951;SDS011;34758;42.148;24.744;2022-11-11T12:23:48;16.48;;;10.27;;
48951;SDS011;34758;42.148;24.744;2022-11-11T12:26:21;14.98;;;10.88;;
48951;SDS011;34758;42.148;24.744;2022-11-11T12:29:01;16.73;;;11.38;;
48951;SDS011;34758;42.148;24.744;2022-11-11T12:34:09;13.40;;;9.77;;
48951;SDS011;34758;42.148;24.744;2022-11-11T12:36:43;14.45;;;10.27;;
48951;SDS011;34758;42.148;24.744;2022-11-11T12:42:05;18.25;;;11.15;;
48951;SDS011;34758;42.148;24.744;2022-11-11T12:44:40;15.70;;;11.45;;
48951;SDS011;34758;42.148;24.744;2022-11-11T12:47:19;12.93;;;10.40;;
48951;SDS011;34758;42.148;24.744;2022-11-11T12:49:52;14.40;;;10.55;;
48951;SDS011;34758;42.148;24.744;2022-11-11T12:52:28;13.77;;;10.20;;
48951;SDS011;34758;42.148;24.744;2022-11-11T12:55:06;13.23;;;9.73;;
48951;SDS011;34758;42.148;24.744;2022-11-11T12:57:42;20.52;;;11.57;;
48951;SDS011;34758;42.148;24.744;2022-11-11T13:00:18;21.10;;;13.27;;
48951;SDS011;34758;42.148;24.744;2022-11-11T13:02:53;16.20;;;11.48;;
48951;SDS011;34758;42.148;24.744;2022-11-11T13:05:32;17.52;;;11.82;;
48951;SDS011;34758;42.148;24.744;2022-11-11T13:11:05;19.05;;;12.10;;
48951;SDS011;34758;42.148;24.744;2022-11-11T13:13:45;20.27;;;12.93;;
48951;SDS011;34758;42.148;24.744;2022-11-11T13:16:20;20.40;;;13.40;;
48951;SDS011;34758;42.148;24.744;2022-11-11T13:18:50;22.55;;;14.00;;
48951;SDS011;34758;42.148;24.744;2022-11-11T13:21:21;22.95;;;15.40;;
48951;SDS011;34758;42.148;24.744;2022-11-11T13:23:51;29.20;;;16.73;;
48951;SDS011;34758;42.148;24.744;2022-11-11T13:26:27;32.85;;;19.58;;
48951;SDS011;34758;42.148;24.744;2022-11-11T13:29:06;28.48;;;17.88;;
48951;SDS011;34758;42.148;24.744;2022-11-11T13:31:44;30.92;;;19.48;;
48951;SDS011;34758;42.148;24.744;2022-11-11T13:34:14;34.22;;;20.30;;
48951;SDS011;34758;42.148;24.744;2022-11-11T13:36:43;35.92;;;22.55;;
48951;SDS011;34758;42.148;24.744;2022-11-11T13:39:20;43.10;;;23.50;;
48951;SDS011;34758;42.148;24.744;2022-11-11T13:41:50;36.78;;;22.25;;
48951;SDS011;34758;42.148;24.744;2022-11-11T13:44:21;39.10;;;22.35;;
48951;SDS011;34758;42.148;24.744;2022-11-11T13:46:49;41.43;;;21.97;;
48951;SDS011;34758;42.148;24.744;2022-11-11T13:49:21;38.60;;;21.95;;
48951;SDS011;34758;42.148;24.744;2022-11-11T13:51:56;30.98;;;19.13;;
48951;SDS011;34758;42.148;24.744;2022-11-11T13:54:25;26.83;;;18.83;;
48951;SDS011;34758;42.148;24.744;2022-11-11T13:56:59;29.45;;;19.30;;
48951;SDS011;34758;42.148;24.744;2022-11-11T13:59:30;28.67;;;19.48;;
48951;SDS011;34758;42.148;24.744;2022-11-11T14:02:12;24.92;;;18.58;;
48951;SDS011;34758;42.148;24.744;2022-11-11T14:07:49;26.60;;;18.08;;
48951;SDS011;34758;42.148;24.744;2022-11-11T14:13:35;23.42;;;17.50;;
48951;SDS011;34758;42.148;24.744;2022-11-11T14:16:07;22.75;;;16.85;;
48951;SDS011;34758;42.148;24.744;2022-11-11T14:18:37;26.33;;;16.75;;
48951;SDS011;34758;42.148;24.744;2022-11-11T14:21:06;20.92;;;14.57;;
48951;SDS011;34758;42.148;24.744;2022-11-11T14:23:36;19.00;;;13.18;;
48951;SDS011;34758;42.148;24.744;2022-11-11T14:26:23;18.52;;;12.85;;
48951;SDS011;34758;42.148;24.744;2022-11-11T14:28:55;17.27;;;11.40;;
48951;SDS011;34758;42.148;24.744;2022-11-11T14:31:29;17.75;;;11.13;;
48951;SDS011;34758;42.148;24.744;2022-11-11T14:34:18;16.23;;;11.25;;
48951;SDS011;34758;42.148;24.744;2022-11-11T14:36:51;14.50;;;9.73;;
48951;SDS011;34758;42.148;24.744;2022-11-11T14:39:25;15.90;;;10.75;;
48951;SDS011;34758;42.148;24.744;2022-11-11T14:41:57;15.80;;;10.63;;
48951;SDS011;34758;42.148;24.744;2022-11-11T14:44:38;13.10;;;9.88;;
48951;SDS011;34758;42.148;24.744;2022-11-11T14:47:18;17.88;;;9.98;;
48951;SDS011;34758;42.148;24.744;2022-11-11T14:49:50;17.63;;;11.13;;
48951;SDS011;34758;42.148;24.744;2022-11-11T14:52:22;19.10;;;11.02;;
48951;SDS011;34758;42.148;24.744;2022-11-11T14:55:10;17.70;;;11.32;;